LBB weather

Los Bravos De Bonfil Airport
Ciudad Del Carmen, Campeche, Mexico

Public forecast

Using degrees Celsius for public forecast. Weather courtesy of forecast.io.

Closest aviation weather report (METAR) to Los Bravos De Bonfil Airport

Closest report is Palenque International Airport, 33.2 nm (61.4 km) SW. Retrieved 2019/12/07 14:42 UTC (0 seconds ago):

MMPQ 071442Z 00000KT 6SM FEW020 SCT080 24/22 A3006 RMK 8/130 HZY

Closest aviation forecast (TAF) to Los Bravos De Bonfil Airport

Forecast is more than 6 hours old.

Closest forecast is Palenque International Airport, 33.2 nm (61.4 km) SW. Retrieved 2019/12/07 06:59 UTC (7 hours ago):

TAF MMPQ 070459Z 0706/0806 00000KT 4SM HZ SCT020 TEMPO 0712/0716 2SM BR -DZ OVC010 FM071800 09010KT 6SM HZ SCT030 TEMPO 0722/0802 5SM -RA BKN030 FM080300 08005KT 6SM HZ SCT015 BKN070